Main page
METAR-TAF:

METAR-TAF

Airports :

Adak Airport

Adak Island, Alaska, United States

latitude: 51-52-40N, longitude: 176-38-45W, elevation: 20 ft

Current weather observation

The report was made 22 minutes ago, at 02:56 UTC
Wind 16 mph from the West/Southwest
Temperature 39°F
Humidity 81%
Pressure 30.12 in. Hg
Visibility: 10 miles
Few clouds at a height of 1900 ft
Broken clouds at a height of 3000 ft
Overcast at a height of 4100 ft

METAR: PADK 070256Z AUTO 25014KT 10SM FEW019 BKN030 OVC041 04/01 A3012 RMK AO2 SLP200 T00390011 53002 $

Time: 18:18 (03:18 UTC)


TAF: missing

Weather observations and forecasts of more than 4000 airports (METAR and TAF reports).

The available stations are represented by yellow and red dots on the map.

Hover mouse over dot to see the name of the station.

Then click to see weather observations and forecasts.

To change the map : click on the green buttons with a black cross to zoom in, on the green button with a dash to zoom out, or on the green arrows for adjacent maps.


METAR-TAF: